createdAt,value
2019-05-21T00:00:10.020Z,913.46
2019-05-21T00:01:09.987Z,913.47
2019-05-21T00:02:09.959Z,913.49
2019-05-21T00:03:09.926Z,913.53
2019-05-21T00:04:09.887Z,913.49
2019-05-21T00:05:09.860Z,913.53
2019-05-21T00:06:09.802Z,913.51
2019-05-21T00:07:09.766Z,913.49
2019-05-21T00:08:09.743Z,913.49
2019-05-21T00:09:09.702Z,913.55
2019-05-21T00:10:09.694Z,913.55
2019-05-21T00:11:09.678Z,913.58
2019-05-21T00:12:09.711Z,913.60
2019-05-21T00:14:09.528Z,913.60
2019-05-21T00:15:09.586Z,913.60
2019-05-21T00:16:09.483Z,913.58
2019-05-21T00:17:09.454Z,913.60
2019-05-21T00:18:09.398Z,913.63
2019-05-21T00:19:09.362Z,913.67
2019-05-21T00:20:09.328Z,913.65
2019-05-21T00:21:09.324Z,913.67
2019-05-21T00:22:09.255Z,913.69
2019-05-21T00:23:09.257Z,913.68
2019-05-21T00:24:09.204Z,913.68
2019-05-21T00:25:09.191Z,913.68
2019-05-21T00:26:09.132Z,913.67
2019-05-21T00:27:09.115Z,913.70
2019-05-21T00:28:09.070Z,913.72
2019-05-21T00:29:09.031Z,913.74
2019-05-21T00:30:08.999Z,913.78
2019-05-21T00:31:08.964Z,913.79
2019-05-21T00:32:08.928Z,913.78
2019-05-21T00:33:09.101Z,913.81
2019-05-21T00:34:08.969Z,913.76
2019-05-21T00:35:08.805Z,913.76
2019-05-21T00:36:08.968Z,913.76
2019-05-21T00:37:08.754Z,913.76
2019-05-21T00:38:09.317Z,913.79
2019-05-21T00:39:08.720Z,913.77
2019-05-21T00:40:08.841Z,913.79
2019-05-21T00:41:08.599Z,913.74
2019-05-21T00:42:08.806Z,913.79
2019-05-21T00:43:08.544Z,913.80
2019-05-21T00:44:08.502Z,913.81
2019-05-21T00:45:08.486Z,913.83
2019-05-21T00:46:08.668Z,913.86
2019-05-21T00:47:08.457Z,913.85
2019-05-21T00:48:08.518Z,913.84
2019-05-21T00:49:08.599Z,913.86
2019-05-21T00:50:08.976Z,913.84
2019-05-21T00:51:08.339Z,913.83
2019-05-21T00:52:09.126Z,913.86
2019-05-21T00:53:08.196Z,913.84
2019-05-21T00:54:08.327Z,913.85
2019-05-21T00:55:08.126Z,913.84
2019-05-21T00:56:08.092Z,913.85
2019-05-21T00:57:08.098Z,913.81
2019-05-21T00:58:08.057Z,913.83
2019-05-21T00:59:08.011Z,913.83
2019-05-21T01:00:08.151Z,913.79
2019-05-21T01:01:08.065Z,913.84
2019-05-21T01:02:07.909Z,913.84
2019-05-21T01:03:07.856Z,913.82
2019-05-21T01:04:07.870Z,913.86
2019-05-21T01:05:08.470Z,913.82
2019-05-21T01:06:07.754Z,913.83
2019-05-21T01:07:07.736Z,913.82
2019-05-21T01:08:07.697Z,913.83
2019-05-21T01:09:07.638Z,913.83
2019-05-21T01:10:07.786Z,913.84
2019-05-21T01:11:07.564Z,913.85
2019-05-21T01:12:07.588Z,913.87
2019-05-21T01:13:07.500Z,913.87
2019-05-21T01:14:07.493Z,913.84
2019-05-21T01:15:07.521Z,913.86
2019-05-21T01:17:07.376Z,913.86
2019-05-21T01:18:07.354Z,913.86
2019-05-21T01:19:07.337Z,913.87
2019-05-21T01:20:07.283Z,913.88
2019-05-21T01:22:07.200Z,913.91
2019-05-21T01:23:07.165Z,913.89
2019-05-21T01:24:07.161Z,913.89
2019-05-21T01:25:07.119Z,913.92
2019-05-21T01:26:07.064Z,913.96
2019-05-21T01:28:06.987Z,914.00
2019-05-21T01:29:06.982Z,914.01
2019-05-21T01:30:07.016Z,914.02
2019-05-21T01:31:06.878Z,914.00
2019-05-21T01:32:06.884Z,914.01
2019-05-21T01:33:06.887Z,914.00
2019-05-21T01:34:06.804Z,913.97
2019-05-21T01:35:16.920Z,914.01
2019-05-21T01:36:06.747Z,913.99
2019-05-21T01:37:06.836Z,913.98
2019-05-21T01:38:06.941Z,913.96
2019-05-21T01:39:06.635Z,913.92
2019-05-21T01:40:06.705Z,913.92
2019-05-21T01:41:06.603Z,913.90
2019-05-21T01:42:06.525Z,913.89
2019-05-21T01:43:06.846Z,913.90
2019-05-21T01:44:06.431Z,913.89
2019-05-21T01:45:06.453Z,913.90
2019-05-21T01:46:06.418Z,913.88
2019-05-21T01:47:06.450Z,913.93
2019-05-21T01:48:06.486Z,913.86
2019-05-21T01:49:06.362Z,913.90
2019-05-21T01:50:06.330Z,913.87
2019-05-21T01:51:06.218Z,913.92
2019-05-21T01:52:06.177Z,913.89
2019-05-21T01:53:06.319Z,913.91
2019-05-21T01:54:06.113Z,913.92
2019-05-21T01:55:06.047Z,913.96
2019-05-21T01:56:06.020Z,913.94
2019-05-21T01:57:06.016Z,914.00
2019-05-21T01:58:05.944Z,913.98
2019-05-21T01:59:06.080Z,913.94
2019-05-21T02:00:05.998Z,913.99
2019-05-21T02:01:05.899Z,913.97
2019-05-21T02:02:05.830Z,913.97
2019-05-21T02:03:05.770Z,913.99
2019-05-21T02:04:05.755Z,914.00
2019-05-21T02:05:05.784Z,914.01
2019-05-21T02:06:05.771Z,914.00
2019-05-21T02:07:05.630Z,914.02
2019-05-21T02:08:05.613Z,914.03
2019-05-21T02:09:05.585Z,913.98
2019-05-21T02:10:05.551Z,913.98
2019-05-21T02:11:05.514Z,913.99
2019-05-21T02:12:05.576Z,913.96
2019-05-21T02:13:05.428Z,913.92
2019-05-21T02:14:05.391Z,913.95
2019-05-21T02:15:05.387Z,913.97
2019-05-21T02:16:05.352Z,913.96
2019-05-21T02:17:05.311Z,913.97
2019-05-21T02:18:05.317Z,913.93
2019-05-21T02:19:05.261Z,913.93
2019-05-21T02:20:05.210Z,913.97
2019-05-21T02:22:05.135Z,913.96
2019-05-21T02:23:05.136Z,913.98
2019-05-21T02:24:05.097Z,914.02
2019-05-21T02:25:05.011Z,913.97
2019-05-21T02:26:04.999Z,914.00
2019-05-21T02:27:04.973Z,913.98
2019-05-21T02:28:04.907Z,914.00
2019-05-21T02:29:04.878Z,913.95
2019-05-21T02:30:05.329Z,913.99
2019-05-21T02:31:04.858Z,913.97
2019-05-21T02:32:04.767Z,913.98
2019-05-21T02:33:04.742Z,914.03
2019-05-21T02:34:04.713Z,914.02
2019-05-21T02:35:04.685Z,914.01
2019-05-21T02:36:04.719Z,914.00
2019-05-21T02:37:06.282Z,913.98
2019-05-21T02:38:04.677Z,914.00
2019-05-21T02:39:04.527Z,914.01
2019-05-21T02:40:04.531Z,914.01
2019-05-21T02:41:04.690Z,913.99
2019-05-21T02:42:04.417Z,914.00
2019-05-21T02:43:04.596Z,913.97
2019-05-21T02:44:04.379Z,913.98
2019-05-21T02:45:04.309Z,914.04
2019-05-21T02:46:04.284Z,914.04
2019-05-21T02:47:04.296Z,914.07
2019-05-21T02:48:04.489Z,914.09
2019-05-21T02:49:04.192Z,914.05
2019-05-21T02:50:04.188Z,914.05
2019-05-21T02:51:04.098Z,914.04
2019-05-21T02:52:04.083Z,914.04
2019-05-21T02:53:04.242Z,914.03
2019-05-21T02:54:04.094Z,914.04
2019-05-21T02:55:04.053Z,914.05
2019-05-21T02:56:03.923Z,914.05
2019-05-21T02:57:04.065Z,914.05
2019-05-21T02:58:03.887Z,914.06
2019-05-21T02:59:03.848Z,914.06
2019-05-21T03:00:03.795Z,914.07
2019-05-21T03:01:03.771Z,914.04
2019-05-21T03:02:03.742Z,914.01
2019-05-21T03:03:03.699Z,914.02
2019-05-21T03:04:03.665Z,914.09
2019-05-21T03:05:03.645Z,914.06
2019-05-21T03:06:13.735Z,914.09
2019-05-21T03:07:03.548Z,914.09
2019-05-21T03:08:03.546Z,914.09
2019-05-21T03:09:03.509Z,914.03
2019-05-21T03:10:03.443Z,913.99
2019-05-21T03:11:03.947Z,913.97
2019-05-21T03:12:03.375Z,913.97
2019-05-21T03:13:03.357Z,914.04
2019-05-21T03:14:03.359Z,914.01
2019-05-21T03:15:03.303Z,914.06
2019-05-21T03:16:03.243Z,914.09
2019-05-21T03:17:03.192Z,914.04
2019-05-21T03:18:03.273Z,914.08
2019-05-21T03:19:03.269Z,914.05
2019-05-21T03:20:03.088Z,914.07
2019-05-21T03:21:03.171Z,914.08
2019-05-21T03:22:03.026Z,914.04
2019-05-21T03:23:03.114Z,914.08
2019-05-21T03:24:02.950Z,914.03
2019-05-21T03:25:03.135Z,914.05
2019-05-21T03:26:02.942Z,914.05
2019-05-21T03:27:02.887Z,914.04
2019-05-21T03:28:02.804Z,914.02
2019-05-21T03:29:02.775Z,914.02
2019-05-21T03:30:02.999Z,913.99
2019-05-21T03:31:02.782Z,914.00
2019-05-21T03:32:02.668Z,914.01
2019-05-21T03:33:02.666Z,913.96
2019-05-21T03:34:02.634Z,913.96
2019-05-21T03:35:02.595Z,913.94
2019-05-21T03:36:02.774Z,913.88
2019-05-21T03:37:02.695Z,913.93
2019-05-21T03:38:02.538Z,913.95
2019-05-21T03:39:02.438Z,913.92
2019-05-21T03:40:02.403Z,913.92
2019-05-21T03:41:02.400Z,913.93
2019-05-21T03:43:02.374Z,913.90
2019-05-21T03:44:02.248Z,913.90
2019-05-21T03:45:02.209Z,913.90
2019-05-21T03:46:02.187Z,913.90
2019-05-21T03:47:02.169Z,913.89
2019-05-21T03:48:02.162Z,913.89
2019-05-21T03:49:02.171Z,913.92
2019-05-21T03:50:02.054Z,913.87
2019-05-21T03:51:02.142Z,913.87
2019-05-21T03:52:01.984Z,913.79
2019-05-21T03:53:02.574Z,913.79
2019-05-21T03:54:01.924Z,913.81
2019-05-21T03:55:02.992Z,913.79
2019-05-21T03:56:02.033Z,913.79
2019-05-21T03:57:01.783Z,913.74
2019-05-21T03:58:01.750Z,913.76
2019-05-21T03:59:01.717Z,913.71
2019-05-21T04:00:01.678Z,913.72
2019-05-21T04:01:01.669Z,913.70
2019-05-21T04:02:01.972Z,913.70
2019-05-21T04:03:01.604Z,913.71
2019-05-21T04:04:01.634Z,913.70
2019-05-21T04:05:01.579Z,913.71
2019-05-21T04:06:01.535Z,913.70
2019-05-21T04:07:01.564Z,913.68
2019-05-21T04:08:01.671Z,913.63
2019-05-21T04:09:01.431Z,913.62
2019-05-21T04:10:01.398Z,913.66
2019-05-21T04:11:01.320Z,913.63
2019-05-21T04:12:01.438Z,913.63
2019-05-21T04:13:01.446Z,913.62
2019-05-21T04:14:01.216Z,913.63
2019-05-21T04:15:01.244Z,913.65
2019-05-21T04:16:01.211Z,913.59
2019-05-21T04:17:01.093Z,913.56
2019-05-21T04:18:01.353Z,913.55
2019-05-21T04:19:01.174Z,913.54
2019-05-21T04:20:01.779Z,913.47
2019-05-21T04:21:01.064Z,913.46
2019-05-21T04:22:00.999Z,913.45
2019-05-21T04:25:01.171Z,913.39
2019-05-21T04:26:01.598Z,913.38
2019-05-21T04:27:00.986Z,913.34
2019-05-21T04:28:00.995Z,913.38
2019-05-21T04:29:00.863Z,913.33
2019-05-21T04:30:01.040Z,913.33
2019-05-21T04:31:01.549Z,913.30
2019-05-21T04:32:00.825Z,913.29
2019-05-21T04:33:00.909Z,913.28
2019-05-21T04:34:01.274Z,913.27
2019-05-21T04:35:00.673Z,913.22
2019-05-21T04:36:01.599Z,913.27
2019-05-21T04:37:09.847Z,913.28
2019-05-21T04:38:00.479Z,913.28
2019-05-21T04:39:01.066Z,913.28
2019-05-21T04:40:00.458Z,913.27
2019-05-21T04:41:00.255Z,913.28
2019-05-21T04:42:00.371Z,913.22
2019-05-21T04:43:02.155Z,913.27
2019-05-21T04:44:00.416Z,913.26
2019-05-21T04:45:00.106Z,913.26
2019-05-21T04:46:00.437Z,913.24
2019-05-21T04:47:00.036Z,913.23
2019-05-21T04:48:00.070Z,913.24
2019-05-21T04:48:59.974Z,913.24
2019-05-21T04:49:59.918Z,913.24
2019-05-21T04:51:00.054Z,913.24
2019-05-21T04:52:00.242Z,913.21
2019-05-21T04:52:59.927Z,913.22
2019-05-21T04:53:59.806Z,913.19
2019-05-21T04:54:59.741Z,913.20
2019-05-21T04:55:59.825Z,913.18
2019-05-21T04:56:59.735Z,913.18
2019-05-21T04:57:59.802Z,913.16
2019-05-21T04:58:59.625Z,913.15
2019-05-21T04:59:59.626Z,913.16
2019-05-21T05:01:00.144Z,913.13
2019-05-21T05:01:59.751Z,913.13
2019-05-21T05:02:59.461Z,913.12
2019-05-21T05:03:59.466Z,913.05
2019-05-21T05:04:59.451Z,913.04
2019-05-21T05:05:59.397Z,913.03
2019-05-21T05:06:59.480Z,913.05
2019-05-21T05:07:59.368Z,913.05
2019-05-21T05:09:00.471Z,913.00
2019-05-21T05:09:59.231Z,913.04
2019-05-21T05:10:59.231Z,913.06
2019-05-21T05:11:59.337Z,913.06
2019-05-21T05:12:59.181Z,913.05
2019-05-21T05:13:59.161Z,913.03
2019-05-21T05:14:59.038Z,913.02
2019-05-21T05:15:59.092Z,913.05
2019-05-21T05:16:59.086Z,913.04
2019-05-21T05:17:59.028Z,913.04
2019-05-21T05:18:58.890Z,912.98
2019-05-21T05:19:58.965Z,912.95
2019-05-21T05:20:58.841Z,912.98
2019-05-21T05:21:58.787Z,912.96
2019-05-21T05:22:58.767Z,912.96
2019-05-21T05:23:58.888Z,912.92
2019-05-21T05:24:59.590Z,912.93
2019-05-21T05:25:58.692Z,912.88
2019-05-21T05:26:58.617Z,912.88
2019-05-21T05:27:58.648Z,912.84
2019-05-21T05:28:58.632Z,912.84
2019-05-21T05:29:58.585Z,912.86
2019-05-21T05:30:59.130Z,912.86
2019-05-21T05:31:58.517Z,912.88
2019-05-21T05:32:58.394Z,912.88
2019-05-21T05:33:58.525Z,912.87
2019-05-21T05:34:58.398Z,912.87
2019-05-21T05:35:58.539Z,912.85
2019-05-21T05:37:58.221Z,912.81
2019-05-21T05:38:58.179Z,912.83
2019-05-21T05:39:58.202Z,912.83
2019-05-21T05:40:58.168Z,912.82
2019-05-21T05:41:58.157Z,912.82
2019-05-21T05:42:58.041Z,912.83
2019-05-21T05:43:58.105Z,912.80
2019-05-21T05:44:58.064Z,912.83
2019-05-21T05:45:57.967Z,912.78
2019-05-21T05:46:57.932Z,912.78
2019-05-21T05:47:57.956Z,912.79
2019-05-21T05:49:01.191Z,912.82
2019-05-21T05:49:57.846Z,912.78
2019-05-21T05:50:57.819Z,912.81
2019-05-21T05:51:58.056Z,912.77
2019-05-21T05:52:58.646Z,912.80
2019-05-21T05:53:57.707Z,912.80
2019-05-21T05:54:57.648Z,912.80
2019-05-21T05:55:57.662Z,912.77
2019-05-21T05:56:57.670Z,912.78
2019-05-21T05:57:57.679Z,912.73
2019-05-21T05:58:57.564Z,912.72
2019-05-21T05:59:57.542Z,912.69
2019-05-21T06:00:57.500Z,912.67
2019-05-21T06:01:57.390Z,912.68
2019-05-21T06:02:58.041Z,912.66
2019-05-21T06:03:57.454Z,912.66
2019-05-21T06:04:57.268Z,912.67
2019-05-21T06:05:57.391Z,912.70
2019-05-21T06:06:57.379Z,912.69
2019-05-21T06:08:00.170Z,912.68
2019-05-21T06:08:57.136Z,912.65
2019-05-21T06:09:57.133Z,912.66
2019-05-21T06:10:57.104Z,912.63
2019-05-21T06:11:57.009Z,912.64
2019-05-21T06:12:57.484Z,912.65
2019-05-21T06:13:56.934Z,912.63
2019-05-21T06:14:56.964Z,912.63
2019-05-21T06:15:56.887Z,912.60
2019-05-21T06:16:56.837Z,912.65
2019-05-21T06:17:56.818Z,912.62
2019-05-21T06:18:56.935Z,912.58
2019-05-21T06:19:56.749Z,912.64
2019-05-21T06:20:56.775Z,912.61
2019-05-21T06:21:56.679Z,912.63
2019-05-21T06:22:56.656Z,912.64
2019-05-21T06:23:56.679Z,912.61
2019-05-21T06:24:56.770Z,912.59
2019-05-21T06:25:56.530Z,912.61
2019-05-21T06:26:56.496Z,912.60
2019-05-21T06:27:56.464Z,912.60
2019-05-21T06:28:56.623Z,912.63
2019-05-21T06:29:56.401Z,912.62
2019-05-21T06:30:56.506Z,912.60
2019-05-21T06:31:56.312Z,912.58
2019-05-21T06:32:56.281Z,912.62
2019-05-21T06:33:56.247Z,912.59
2019-05-21T06:35:56.429Z,912.64
2019-05-21T06:36:56.137Z,912.66
2019-05-21T06:37:56.169Z,912.66
2019-05-21T06:38:56.138Z,912.67
2019-05-21T06:39:56.015Z,912.68
2019-05-21T06:40:56.013Z,912.66
2019-05-21T06:41:55.980Z,912.65
2019-05-21T06:42:55.922Z,912.66
2019-05-21T06:43:55.924Z,912.66
2019-05-21T06:44:55.832Z,912.69
2019-05-21T06:45:55.792Z,912.67
2019-05-21T06:46:55.927Z,912.66
2019-05-21T06:47:55.758Z,912.67
2019-05-21T06:48:55.704Z,912.68
2019-05-21T06:49:55.670Z,912.66
2019-05-21T06:50:55.668Z,912.66
2019-05-21T06:51:55.590Z,912.60
2019-05-21T06:52:55.662Z,912.60
2019-05-21T06:53:55.506Z,912.58
2019-05-21T06:54:55.564Z,912.57
2019-05-21T06:55:55.435Z,912.56
2019-05-21T06:56:55.407Z,912.55
2019-05-21T06:57:55.374Z,912.57
2019-05-21T06:58:55.351Z,912.57
2019-05-21T06:59:55.314Z,912.56
2019-05-21T07:00:55.259Z,912.56
2019-05-21T07:01:55.230Z,912.56
2019-05-21T07:02:55.205Z,912.57
2019-05-21T07:03:55.224Z,912.56
2019-05-21T07:04:55.148Z,912.57
2019-05-21T07:05:58.731Z,912.57
2019-05-21T07:06:55.152Z,912.59
2019-05-21T07:07:55.020Z,912.56
2019-05-21T07:08:54.982Z,912.56
2019-05-21T07:09:54.986Z,912.55
2019-05-21T07:10:54.947Z,912.59
2019-05-21T07:11:54.866Z,912.54
2019-05-21T07:12:54.850Z,912.60
2019-05-21T07:13:54.812Z,912.61
2019-05-21T07:14:54.780Z,912.60
2019-05-21T07:15:54.747Z,912.63
2019-05-21T07:16:54.709Z,912.64
2019-05-21T07:17:54.656Z,912.58
2019-05-21T07:18:54.617Z,912.62
2019-05-21T07:19:54.598Z,912.60
2019-05-21T07:20:54.604Z,912.60
2019-05-21T07:21:54.506Z,912.59
2019-05-21T07:22:54.593Z,912.63
2019-05-21T07:23:54.451Z,912.62
2019-05-21T07:25:54.387Z,912.65
2019-05-21T07:26:54.350Z,912.64
2019-05-21T07:27:54.406Z,912.69
2019-05-21T07:28:55.332Z,912.69
2019-05-21T07:29:54.219Z,912.70
2019-05-21T07:30:54.252Z,912.68
2019-05-21T07:31:54.166Z,912.72
2019-05-21T07:32:54.182Z,912.71
2019-05-21T07:33:54.180Z,912.72
2019-05-21T07:34:54.161Z,912.73
2019-05-21T07:35:54.013Z,912.72
2019-05-21T07:36:53.992Z,912.72
2019-05-21T07:37:53.954Z,912.71
2019-05-21T07:38:54.376Z,912.72
2019-05-21T07:39:53.893Z,912.69
2019-05-21T07:40:54.067Z,912.73
2019-05-21T07:41:53.817Z,912.74
2019-05-21T07:42:53.783Z,912.71
2019-05-21T07:43:53.747Z,912.68
2019-05-21T07:44:53.689Z,912.69
2019-05-21T07:45:53.656Z,912.72
2019-05-21T07:46:53.760Z,912.73
2019-05-21T07:47:53.590Z,912.77
2019-05-21T07:48:53.591Z,912.76
2019-05-21T07:49:53.530Z,912.71
2019-05-21T07:50:53.482Z,912.71
2019-05-21T07:51:53.451Z,912.71
2019-05-21T07:52:53.398Z,912.73
2019-05-21T07:53:53.369Z,912.76
2019-05-21T07:54:53.346Z,912.75
2019-05-21T07:55:53.283Z,912.77
2019-05-21T07:56:53.272Z,912.79
2019-05-21T07:57:53.260Z,912.79
2019-05-21T07:58:53.196Z,912.79
2019-05-21T07:59:53.207Z,912.78
2019-05-21T08:00:53.107Z,912.82
2019-05-21T08:01:53.166Z,912.84
2019-05-21T08:02:53.037Z,912.84
2019-05-21T08:03:53.068Z,912.86
2019-05-21T08:04:52.980Z,912.86
2019-05-21T08:05:52.947Z,912.82
2019-05-21T08:06:52.898Z,912.84
2019-05-21T08:07:52.903Z,912.85
2019-05-21T08:09:10.926Z,912.81
2019-05-21T08:09:52.806Z,912.82
2019-05-21T08:10:52.760Z,912.84
2019-05-21T08:11:52.706Z,912.86
2019-05-21T08:12:52.677Z,912.88
2019-05-21T08:13:52.639Z,912.87
2019-05-21T08:14:52.641Z,912.84
2019-05-21T08:15:52.608Z,912.85
2019-05-21T08:16:52.601Z,912.85
2019-05-21T08:17:52.602Z,912.85
2019-05-21T08:18:52.606Z,912.86
2019-05-21T08:19:52.459Z,912.86
2019-05-21T08:20:52.428Z,912.86
2019-05-21T08:21:52.358Z,912.87
2019-05-21T08:22:52.334Z,912.86
2019-05-21T08:23:52.305Z,912.90
2019-05-21T08:24:52.270Z,912.87
2019-05-21T08:25:52.214Z,912.91
2019-05-21T08:26:52.223Z,912.86
2019-05-21T08:27:52.160Z,912.89
2019-05-21T08:28:52.137Z,912.87
2019-05-21T08:29:52.091Z,912.87
2019-05-21T08:30:52.041Z,912.87
2019-05-21T08:31:52.003Z,912.92
2019-05-21T08:32:51.977Z,912.94
2019-05-21T08:33:51.938Z,912.92
2019-05-21T08:34:52.103Z,912.93
2019-05-21T08:35:51.910Z,912.99
2019-05-21T08:36:51.832Z,912.96
2019-05-21T08:37:51.802Z,912.98
2019-05-21T08:38:51.760Z,913.03
2019-05-21T08:39:51.727Z,913.05
2019-05-21T08:40:51.942Z,913.03
2019-05-21T08:41:51.647Z,913.02
2019-05-21T08:42:51.634Z,913.02
2019-05-21T08:43:51.583Z,913.05
2019-05-21T08:44:51.580Z,913.05
2019-05-21T08:45:51.515Z,913.07
2019-05-21T08:46:51.460Z,913.10
2019-05-21T08:47:51.439Z,913.11
2019-05-21T08:48:51.390Z,913.16
2019-05-21T08:49:51.356Z,913.14
2019-05-21T08:50:51.672Z,913.16
2019-05-21T08:51:51.315Z,913.18
2019-05-21T08:52:51.275Z,913.16
2019-05-21T08:53:51.226Z,913.20
2019-05-21T08:54:51.186Z,913.20
2019-05-21T08:55:51.207Z,913.22
2019-05-21T08:56:51.110Z,913.22
2019-05-21T08:58:05.440Z,913.19
2019-05-21T08:58:51.023Z,913.22
2019-05-21T08:59:50.982Z,913.25
2019-05-21T09:00:50.952Z,913.24
2019-05-21T09:01:51.068Z,913.27
2019-05-21T09:02:50.906Z,913.25
2019-05-21T09:03:50.864Z,913.27
2019-05-21T09:04:50.822Z,913.34
2019-05-21T09:05:50.787Z,913.29
2019-05-21T09:06:50.730Z,913.29
2019-05-21T09:07:53.861Z,913.36
2019-05-21T09:08:50.655Z,913.36
2019-05-21T09:09:51.987Z,913.38
2019-05-21T09:10:50.610Z,913.42
2019-05-21T09:11:50.580Z,913.37
2019-05-21T09:12:50.538Z,913.39
2019-05-21T09:13:50.505Z,913.44
2019-05-21T09:14:50.441Z,913.44
2019-05-21T09:15:50.400Z,913.40
2019-05-21T09:16:50.408Z,913.46
2019-05-21T09:17:50.334Z,913.45
2019-05-21T09:18:50.296Z,913.50
2019-05-21T09:19:50.265Z,913.53
2019-05-21T09:20:50.234Z,913.52
2019-05-21T09:21:50.210Z,913.57
2019-05-21T09:22:50.171Z,913.62
2019-05-21T09:23:50.134Z,913.62
2019-05-21T09:24:50.101Z,913.62
2019-05-21T09:25:50.050Z,913.62
2019-05-21T09:26:50.082Z,913.62
2019-05-21T09:27:50.087Z,913.64
2019-05-21T09:28:50.105Z,913.64
2019-05-21T09:29:49.917Z,913.61
2019-05-21T09:30:49.905Z,913.60
2019-05-21T09:31:49.847Z,913.66
2019-05-21T09:32:49.799Z,913.70
2019-05-21T09:33:49.753Z,913.69
2019-05-21T09:34:49.836Z,913.68
2019-05-21T09:35:49.677Z,913.70
2019-05-21T09:36:49.667Z,913.74
2019-05-21T09:37:49.613Z,913.74
2019-05-21T09:38:49.572Z,913.80
2019-05-21T09:39:49.533Z,913.82
2019-05-21T09:40:49.553Z,913.85
2019-05-21T09:41:49.510Z,913.87
2019-05-21T09:42:49.525Z,913.92
2019-05-21T09:43:49.413Z,913.89
2019-05-21T09:44:49.367Z,913.92
2019-05-21T09:45:49.380Z,913.90
2019-05-21T09:46:49.313Z,913.93
2019-05-21T09:47:49.245Z,913.95
2019-05-21T09:48:49.210Z,913.99
2019-05-21T09:49:49.176Z,913.97
2019-05-21T09:50:49.229Z,913.96
2019-05-21T09:51:49.099Z,913.98
2019-05-21T09:52:49.068Z,914.01
2019-05-21T09:53:49.157Z,914.02
2019-05-21T09:54:49.023Z,913.99
2019-05-21T09:55:48.959Z,914.06
2019-05-21T09:56:48.946Z,914.03
2019-05-21T09:57:48.914Z,914.08
2019-05-21T09:58:48.857Z,914.11
2019-05-21T09:59:48.844Z,914.05
2019-05-21T10:00:49.091Z,914.01
2019-05-21T10:01:48.740Z,914.05
2019-05-21T10:02:48.703Z,914.14
2019-05-21T10:03:48.674Z,914.18
2019-05-21T10:04:48.634Z,914.18
2019-05-21T10:05:48.603Z,914.19
2019-05-21T10:06:48.614Z,914.23
2019-05-21T10:07:48.550Z,914.27
2019-05-21T10:08:48.550Z,914.25
2019-05-21T10:09:48.551Z,914.28
2019-05-21T10:10:48.427Z,914.25
2019-05-21T10:11:48.565Z,914.23
2019-05-21T10:12:48.371Z,914.25
2019-05-21T10:13:48.340Z,914.23
2019-05-21T10:14:48.279Z,914.23
2019-05-21T10:15:48.243Z,914.24
2019-05-21T10:16:48.215Z,914.30
2019-05-21T10:17:48.181Z,914.29
2019-05-21T10:18:48.180Z,914.31
2019-05-21T10:19:48.163Z,914.32
2019-05-21T10:20:48.081Z,914.27
2019-05-21T10:21:48.154Z,914.25
2019-05-21T10:22:48.050Z,914.27
2019-05-21T10:23:47.964Z,914.34
2019-05-21T10:24:47.958Z,914.32
2019-05-21T10:25:47.924Z,914.34
2019-05-21T10:26:47.882Z,914.37
2019-05-21T10:27:47.934Z,914.41
2019-05-21T10:28:47.814Z,914.45
2019-05-21T10:29:47.981Z,914.50
2019-05-21T10:30:47.769Z,914.48
2019-05-21T10:31:47.720Z,914.60
2019-05-21T10:32:47.682Z,914.58
2019-05-21T10:33:47.736Z,914.57
2019-05-21T10:34:47.616Z,914.62
2019-05-21T10:35:47.584Z,914.62
2019-05-21T10:36:47.531Z,914.64
2019-05-21T10:37:55.102Z,914.70
2019-05-21T10:38:47.791Z,914.65
2019-05-21T10:39:47.427Z,914.71
2019-05-21T10:40:47.401Z,914.76
2019-05-21T10:41:47.368Z,914.88
2019-05-21T10:42:47.331Z,914.79
2019-05-21T10:43:47.301Z,914.71
2019-05-21T10:44:47.284Z,914.73
2019-05-21T10:45:47.287Z,914.71
2019-05-21T10:46:47.207Z,914.71
2019-05-21T10:47:47.174Z,914.79
2019-05-21T10:48:47.262Z,914.82
2019-05-21T10:49:47.195Z,914.73
2019-05-21T10:50:47.099Z,914.81
2019-05-21T10:51:47.062Z,914.88
2019-05-21T10:52:47.050Z,914.87
2019-05-21T10:53:46.972Z,914.94
2019-05-21T10:54:47.108Z,915.02
2019-05-21T10:55:46.930Z,915.01
2019-05-21T10:56:48.519Z,915.03
2019-05-21T10:57:46.857Z,915.02
2019-05-21T10:58:46.833Z,914.96
2019-05-21T10:59:46.807Z,914.97
2019-05-21T11:00:47.113Z,915.02
2019-05-21T11:01:46.714Z,915.02
2019-05-21T11:02:46.698Z,915.09
2019-05-21T11:03:46.662Z,915.18
2019-05-21T11:04:46.639Z,915.09
2019-05-21T11:05:46.603Z,915.00
2019-05-21T11:06:46.562Z,915.07
2019-05-21T11:07:46.521Z,915.11
2019-05-21T11:08:46.518Z,915.15
2019-05-21T11:09:46.464Z,915.19
2019-05-21T11:10:46.502Z,915.00
2019-05-21T11:11:46.399Z,915.05
2019-05-21T11:12:46.365Z,915.17
2019-05-21T11:13:46.344Z,915.20
2019-05-21T11:14:46.317Z,915.33
2019-05-21T11:15:46.278Z,915.33
2019-05-21T11:16:46.274Z,915.40
2019-05-21T11:18:07.100Z,915.20
2019-05-21T11:18:46.213Z,915.27
2019-05-21T11:19:46.168Z,915.33
2019-05-21T11:20:46.143Z,915.28
2019-05-21T11:21:46.089Z,915.18
2019-05-21T11:22:46.056Z,915.17
2019-05-21T11:23:46.111Z,915.17
2019-05-21T11:24:45.997Z,915.26
2019-05-21T11:25:46.012Z,915.25
2019-05-21T11:26:45.940Z,915.28
2019-05-21T11:27:45.913Z,915.26
2019-05-21T11:28:45.870Z,915.30
2019-05-21T11:29:45.855Z,915.32
2019-05-21T11:30:45.824Z,915.35
2019-05-21T11:31:56.575Z,915.32
2019-05-21T11:32:47.960Z,915.39
2019-05-21T11:33:45.799Z,915.38
2019-05-21T11:34:45.742Z,915.46
2019-05-21T11:35:45.644Z,915.43
2019-05-21T11:36:45.616Z,915.47
2019-05-21T11:37:47.867Z,915.48
2019-05-21T11:38:45.738Z,915.46
2019-05-21T11:39:45.537Z,915.50
2019-05-21T11:40:50.840Z,915.47
2019-05-21T11:41:45.482Z,915.50
2019-05-21T11:42:45.425Z,915.55
2019-05-21T11:43:45.420Z,915.51
2019-05-21T11:44:45.356Z,915.58
2019-05-21T11:45:45.347Z,915.59
2019-05-21T11:46:45.293Z,915.61
2019-05-21T11:47:45.336Z,915.64
2019-05-21T11:48:45.349Z,915.68
2019-05-21T11:49:45.222Z,915.67
2019-05-21T11:50:45.178Z,915.67
2019-05-21T11:51:45.165Z,915.73
2019-05-21T11:52:45.101Z,915.76
2019-05-21T11:53:45.091Z,915.77
2019-05-21T11:54:45.065Z,915.81
2019-05-21T11:55:45.202Z,915.83
2019-05-21T11:56:44.997Z,915.82
2019-05-21T11:57:44.968Z,915.81
2019-05-21T11:58:44.916Z,915.82
2019-05-21T11:59:44.915Z,915.87
2019-05-21T12:00:44.867Z,915.87
2019-05-21T12:01:44.856Z,915.84
2019-05-21T12:02:44.823Z,915.87
2019-05-21T12:03:44.826Z,915.89
2019-05-21T12:04:44.813Z,915.91
2019-05-21T12:05:44.689Z,915.92
2019-05-21T12:06:44.691Z,915.92
2019-05-21T12:07:44.647Z,915.99
2019-05-21T12:08:56.291Z,916.01
2019-05-21T12:09:44.731Z,916.05
2019-05-21T12:10:44.547Z,916.12
2019-05-21T12:11:44.517Z,916.01
2019-05-21T12:12:44.498Z,916.01
2019-05-21T12:13:44.459Z,916.01
2019-05-21T12:14:44.427Z,915.98
2019-05-21T12:15:44.377Z,916.04
2019-05-21T12:16:44.458Z,916.01
2019-05-21T12:17:44.329Z,916.06
2019-05-21T12:18:44.289Z,916.03
2019-05-21T12:19:44.263Z,916.08
2019-05-21T12:20:44.251Z,916.22
2019-05-21T12:21:44.200Z,916.19
2019-05-21T12:22:44.152Z,916.48
2019-05-21T12:23:44.313Z,916.17
2019-05-21T12:24:44.104Z,916.18
2019-05-21T12:25:44.065Z,916.17
2019-05-21T12:26:44.030Z,916.20
2019-05-21T12:27:44.015Z,916.09
2019-05-21T12:28:43.985Z,916.13
2019-05-21T12:29:43.959Z,916.18
2019-05-21T12:30:43.923Z,916.14
2019-05-21T12:31:43.906Z,916.33
2019-05-21T12:32:43.853Z,916.11
2019-05-21T12:33:43.861Z,916.40
2019-05-21T12:34:43.799Z,916.48
2019-05-21T12:35:43.745Z,916.18
2019-05-21T12:36:43.717Z,916.11
2019-05-21T12:37:43.707Z,916.10
2019-05-21T12:38:43.674Z,916.21